createdAt,value
2022-12-08T00:01:07.960Z,44.05
2022-12-08T00:03:35.737Z,44.13
2022-12-08T00:06:22.637Z,43.84
2022-12-08T00:09:07.931Z,43.85
2022-12-08T00:11:34.984Z,43.95
2022-12-08T00:14:01.685Z,43.77
2022-12-08T00:16:28.255Z,43.85
2022-12-08T00:18:54.802Z,44.20
2022-12-08T00:21:21.348Z,44.20
2022-12-08T00:23:47.909Z,43.88
2022-12-08T00:26:14.440Z,44.07
2022-12-08T00:28:40.908Z,43.81
2022-12-08T00:31:09.421Z,43.88
2022-12-08T00:33:36.010Z,43.84
2022-12-08T00:36:10.389Z,44.11
2022-12-08T00:38:38.262Z,43.84
2022-12-08T00:41:11.881Z,43.86
2022-12-08T00:43:38.450Z,43.86
2022-12-08T00:46:05.068Z,44.08
2022-12-08T00:48:31.635Z,44.05
2022-12-08T00:50:58.097Z,44.04
2022-12-08T00:53:24.647Z,44.11
2022-12-08T00:55:51.146Z,43.91
2022-12-08T00:58:17.720Z,44.07
2022-12-08T01:00:44.582Z,43.82
2022-12-08T01:03:12.022Z,44.08
2022-12-08T01:05:39.477Z,43.77
2022-12-08T01:08:06.786Z,44.06
2022-12-08T01:10:36.309Z,44.08
2022-12-08T01:13:03.115Z,43.85
2022-12-08T01:15:29.666Z,44.01
2022-12-08T01:17:56.292Z,44.09
2022-12-08T01:20:22.845Z,44.04
2022-12-08T01:22:49.503Z,43.81
2022-12-08T01:25:16.094Z,44.00
2022-12-08T01:27:42.640Z,43.82
2022-12-08T01:30:09.806Z,43.66
2022-12-08T01:32:36.254Z,43.99
2022-12-08T01:35:02.805Z,43.92
2022-12-08T01:37:29.774Z,43.99
2022-12-08T01:39:56.255Z,44.15
2022-12-08T01:42:23.795Z,43.70
2022-12-08T01:44:54.838Z,43.62
2022-12-08T01:47:24.209Z,44.07
2022-12-08T01:49:50.728Z,44.08
2022-12-08T01:52:23.151Z,44.03
2022-12-08T01:54:58.333Z,44.04
2022-12-08T01:57:33.335Z,44.22
2022-12-08T02:00:10.176Z,43.98
2022-12-08T02:02:46.463Z,43.95
2022-12-08T02:05:14.060Z,44.07
2022-12-08T02:07:40.936Z,43.87
2022-12-08T02:10:08.198Z,43.85
2022-12-08T02:12:34.786Z,43.88
2022-12-08T02:15:04.988Z,44.21
2022-12-08T02:18:00.378Z,43.87
2022-12-08T02:21:03.327Z,43.71
2022-12-08T02:23:57.414Z,43.82
2022-12-08T02:26:38.761Z,43.84
2022-12-08T02:29:14.020Z,44.01
2022-12-08T02:32:08.983Z,44.01
2022-12-08T02:34:45.686Z,43.86
2022-12-08T02:37:24.020Z,44.12
2022-12-08T02:39:59.387Z,44.10
2022-12-08T02:42:38.191Z,43.87
2022-12-08T02:45:14.406Z,43.99
2022-12-08T02:47:41.224Z,43.95
2022-12-08T02:50:08.280Z,43.75
2022-12-08T02:52:34.703Z,43.84
2022-12-08T02:55:09.454Z,43.85
2022-12-08T02:57:56.194Z,43.96
2022-12-08T03:00:26.625Z,43.89
2022-12-08T03:03:29.028Z,43.91
2022-12-08T03:06:08.235Z,44.18
2022-12-08T03:08:34.640Z,44.05
2022-12-08T03:11:20.871Z,43.80
2022-12-08T03:13:52.047Z,44.00
2022-12-08T03:16:27.365Z,43.74
2022-12-08T03:19:02.185Z,44.00
2022-12-08T03:21:29.908Z,43.96
2022-12-08T03:23:57.557Z,43.71
2022-12-08T03:26:45.882Z,44.16
2022-12-08T03:29:13.323Z,43.75
2022-12-08T03:31:44.418Z,43.71
2022-12-08T03:34:13.985Z,43.78
2022-12-08T03:36:40.473Z,44.06
2022-12-08T03:39:06.985Z,44.11
2022-12-08T03:41:33.547Z,44.09
2022-12-08T03:44:00.114Z,44.16
2022-12-08T03:48:55.417Z,43.79
2022-12-08T03:51:22.889Z,43.98
2022-12-08T03:53:49.911Z,43.80
2022-12-08T03:56:23.038Z,43.87
2022-12-08T03:58:49.605Z,43.91
2022-12-08T04:01:16.090Z,43.91
2022-12-08T04:03:42.542Z,44.02
2022-12-08T04:06:09.338Z,44.02
2022-12-08T04:08:35.887Z,43.85
2022-12-08T04:11:02.445Z,43.82
2022-12-08T04:13:29.221Z,43.97
2022-12-08T04:15:55.828Z,43.81
2022-12-08T04:18:23.005Z,44.03
2022-12-08T04:20:49.476Z,43.97
2022-12-08T04:23:16.040Z,43.59
2022-12-08T04:25:42.762Z,43.76
2022-12-08T04:28:09.300Z,43.57
2022-12-08T04:30:35.881Z,43.89
2022-12-08T04:33:02.614Z,43.62
2022-12-08T04:35:29.181Z,43.65
2022-12-08T04:37:55.984Z,43.97
2022-12-08T04:40:22.885Z,44.00
2022-12-08T04:42:49.415Z,44.00
2022-12-08T04:45:16.046Z,43.95
2022-12-08T04:47:43.123Z,43.78
2022-12-08T04:50:10.526Z,43.97
2022-12-08T04:52:37.174Z,43.67
2022-12-08T04:55:03.954Z,43.99
2022-12-08T04:57:30.484Z,43.68
2022-12-08T04:59:57.129Z,43.97
2022-12-08T05:02:23.768Z,43.92
2022-12-08T05:04:50.316Z,43.90
2022-12-08T05:07:16.801Z,43.64
2022-12-08T05:09:43.388Z,43.85
2022-12-08T05:12:09.870Z,43.91
2022-12-08T05:14:36.387Z,43.91
2022-12-08T05:17:09.186Z,43.61
2022-12-08T05:19:36.215Z,43.99
2022-12-08T05:22:02.834Z,43.84
2022-12-08T05:24:29.338Z,43.88
2022-12-08T05:26:55.865Z,43.95
2022-12-08T05:29:22.355Z,43.74
2022-12-08T05:31:49.000Z,44.05
2022-12-08T05:34:15.706Z,44.04
2022-12-08T05:36:42.205Z,43.74
2022-12-08T05:39:12.432Z,43.84
2022-12-08T05:41:39.530Z,44.02
2022-12-08T05:44:06.378Z,43.85
2022-12-08T05:46:33.412Z,43.64
2022-12-08T05:49:01.117Z,43.54
2022-12-08T05:51:28.112Z,43.85
2022-12-08T05:53:55.682Z,43.83
2022-12-08T05:56:23.037Z,43.64
2022-12-08T05:58:50.059Z,43.83
2022-12-08T06:01:30.194Z,43.85
2022-12-08T06:03:58.222Z,43.91
2022-12-08T06:06:25.342Z,43.85
2022-12-08T06:08:51.950Z,43.87
2022-12-08T06:11:29.699Z,43.85
2022-12-08T06:13:57.379Z,44.04
2022-12-08T06:16:26.344Z,44.15
2022-12-08T06:18:53.300Z,43.76
2022-12-08T06:21:20.053Z,43.62
2022-12-08T06:23:51.362Z,43.55
2022-12-08T06:26:18.536Z,43.89
2022-12-08T06:28:45.220Z,43.81
2022-12-08T06:31:15.854Z,43.58
2022-12-08T06:33:43.016Z,43.57
2022-12-08T06:36:12.670Z,43.59
2022-12-08T06:38:43.353Z,43.66
2022-12-08T06:41:11.118Z,43.59
2022-12-08T06:43:38.022Z,43.85
2022-12-08T06:46:07.967Z,43.54
2022-12-08T06:48:34.518Z,43.48
2022-12-08T06:51:13.172Z,43.63
2022-12-08T06:53:40.748Z,43.74
2022-12-08T06:56:07.912Z,43.50
2022-12-08T06:58:35.045Z,43.63
2022-12-08T07:01:10.115Z,43.65
2022-12-08T07:03:37.637Z,44.00
2022-12-08T07:06:05.209Z,43.61
2022-12-08T07:08:33.146Z,43.72
2022-12-08T07:10:59.935Z,43.72
2022-12-08T07:13:26.445Z,43.82
2022-12-08T07:15:53.053Z,43.66
2022-12-08T07:18:19.563Z,43.75
2022-12-08T07:20:46.154Z,43.65
2022-12-08T07:23:12.700Z,43.66
2022-12-08T07:25:39.239Z,43.55
2022-12-08T07:28:11.085Z,43.58
2022-12-08T07:30:38.484Z,43.43
2022-12-08T07:33:05.954Z,43.60
2022-12-08T07:35:34.861Z,43.83
2022-12-08T07:38:02.236Z,43.89
2022-12-08T07:40:29.028Z,43.75
2022-12-08T07:42:55.517Z,43.56
2022-12-08T07:45:24.663Z,43.90
2022-12-08T07:47:54.771Z,43.81
2022-12-08T07:50:21.265Z,43.73
2022-12-08T07:52:48.886Z,43.55
2022-12-08T07:55:15.369Z,43.77
2022-12-08T07:57:41.915Z,43.59
2022-12-08T08:00:09.126Z,43.77
2022-12-08T08:02:35.993Z,43.77
2022-12-08T08:05:02.821Z,43.73
2022-12-08T08:07:31.269Z,43.51
2022-12-08T08:09:58.118Z,43.51
2022-12-08T08:12:32.735Z,43.42
2022-12-08T08:15:01.420Z,43.83
2022-12-08T08:17:28.693Z,43.65
2022-12-08T08:19:55.673Z,43.66
2022-12-08T08:22:22.265Z,43.31
2022-12-08T08:24:48.720Z,43.43
2022-12-08T08:27:15.174Z,43.34
2022-12-08T08:29:41.828Z,43.42
2022-12-08T08:32:08.384Z,43.41
2022-12-08T08:34:34.832Z,43.57
2022-12-08T08:37:01.588Z,43.51
2022-12-08T08:39:30.127Z,43.48
2022-12-08T08:41:56.602Z,43.66
2022-12-08T08:44:23.232Z,43.48
2022-12-08T08:46:49.807Z,43.45
2022-12-08T08:49:16.438Z,43.68
2022-12-08T08:51:43.731Z,43.42
2022-12-08T08:54:10.549Z,43.34
2022-12-08T08:56:37.141Z,43.75
2022-12-08T08:59:03.929Z,43.50
2022-12-08T09:01:30.730Z,43.66
2022-12-08T09:03:57.693Z,43.46
2022-12-08T09:06:25.443Z,43.65
2022-12-08T09:08:52.121Z,43.31
2022-12-08T09:11:18.815Z,43.73
2022-12-08T09:13:51.079Z,43.40
2022-12-08T09:16:18.729Z,43.50
2022-12-08T09:18:45.597Z,43.48
2022-12-08T09:21:20.354Z,43.40
2022-12-08T09:23:46.832Z,43.40
2022-12-08T09:26:13.305Z,43.61
2022-12-08T09:28:39.864Z,43.81
2022-12-08T09:31:06.398Z,43.66
2022-12-08T09:33:32.925Z,43.42
2022-12-08T09:36:03.894Z,43.60
2022-12-08T09:38:30.485Z,43.58
2022-12-08T09:40:58.253Z,43.56
2022-12-08T09:43:42.899Z,43.51
2022-12-08T09:46:11.501Z,43.26
2022-12-08T09:48:43.167Z,43.17
2022-12-08T09:51:11.750Z,43.36
2022-12-08T09:53:44.257Z,43.52
2022-12-08T09:56:17.542Z,43.23
2022-12-08T09:58:51.848Z,43.37
2022-12-08T10:01:20.441Z,43.62
2022-12-08T10:03:47.307Z,43.31
2022-12-08T10:06:20.250Z,43.31
2022-12-08T10:08:59.043Z,43.36
2022-12-08T10:11:45.888Z,43.58
2022-12-08T10:14:21.502Z,43.62
2022-12-08T10:16:52.034Z,43.63
2022-12-08T10:19:24.409Z,43.34
2022-12-08T10:21:53.092Z,43.53
2022-12-08T10:24:37.438Z,43.28
2022-12-08T10:27:06.058Z,43.65
2022-12-08T10:29:33.463Z,43.58
2022-12-08T10:32:00.929Z,43.44
2022-12-08T10:34:27.595Z,43.54
2022-12-08T10:36:56.638Z,43.23
2022-12-08T10:39:33.569Z,43.48
2022-12-08T10:42:08.529Z,43.39
2022-12-08T10:44:53.675Z,43.18
2022-12-08T10:47:26.025Z,43.52
2022-12-08T10:50:19.003Z,43.42
2022-12-08T10:52:47.062Z,43.55
2022-12-08T10:55:18.586Z,43.33
2022-12-08T10:57:45.450Z,43.45
2022-12-08T11:00:14.719Z,43.38
2022-12-08T11:02:54.887Z,43.32
2022-12-08T11:05:23.892Z,43.42
2022-12-08T11:07:52.772Z,43.33
2022-12-08T11:10:26.688Z,43.35
2022-12-08T11:12:53.345Z,43.50
2022-12-08T11:15:20.344Z,43.35
2022-12-08T11:18:00.860Z,43.29
2022-12-08T11:20:27.732Z,43.47
2022-12-08T11:22:56.440Z,43.49
2022-12-08T11:25:25.624Z,43.28
2022-12-08T11:27:54.567Z,43.27
2022-12-08T11:30:23.915Z,43.43
2022-12-08T11:32:56.326Z,43.46
2022-12-08T11:35:31.418Z,43.44
2022-12-08T11:38:24.209Z,43.54
2022-12-08T11:40:54.401Z,43.27
2022-12-08T11:43:35.892Z,43.61
2022-12-08T11:46:09.460Z,43.33
2022-12-08T11:48:50.200Z,43.54
2022-12-08T11:51:23.978Z,43.56
2022-12-08T11:54:09.109Z,43.23
2022-12-08T11:56:44.321Z,43.07
2022-12-08T11:59:44.262Z,43.58
2022-12-08T12:02:17.248Z,43.45
2022-12-08T12:05:23.593Z,43.42
2022-12-08T12:08:41.754Z,43.51
2022-12-08T12:11:40.441Z,43.52
2022-12-08T12:14:31.021Z,43.25
2022-12-08T12:17:07.775Z,43.36
2022-12-08T12:19:39.565Z,43.35
2022-12-08T12:22:17.233Z,43.51
2022-12-08T12:24:47.786Z,43.24
2022-12-08T12:27:14.207Z,43.46
2022-12-08T12:29:59.189Z,43.23
2022-12-08T12:32:39.555Z,43.23
2022-12-08T12:35:16.511Z,43.61
2022-12-08T12:37:43.518Z,43.14
2022-12-08T12:40:20.792Z,43.52
2022-12-08T12:42:56.412Z,43.43
2022-12-08T12:45:34.305Z,43.51
2022-12-08T12:48:00.756Z,43.46
2022-12-08T12:50:33.665Z,43.28
2022-12-08T12:53:26.084Z,43.42
2022-12-08T12:55:59.463Z,43.28
2022-12-08T12:58:29.657Z,43.23
2022-12-08T13:01:08.458Z,43.36
2022-12-08T13:03:35.275Z,43.12
2022-12-08T13:06:02.469Z,42.99
2022-12-08T13:08:29.392Z,43.44
2022-12-08T13:11:09.864Z,43.38
2022-12-08T13:13:38.563Z,43.15
2022-12-08T13:16:19.575Z,43.39
2022-12-08T13:18:50.965Z,43.20
2022-12-08T13:21:21.322Z,43.07
2022-12-08T13:24:08.485Z,43.09
2022-12-08T13:26:47.259Z,43.01
2022-12-08T13:29:17.289Z,43.00
2022-12-08T13:31:55.204Z,43.26
2022-12-08T13:34:45.239Z,43.34
2022-12-08T13:37:11.713Z,43.18
2022-12-08T13:39:41.158Z,43.16
2022-12-08T13:42:19.643Z,43.30
2022-12-08T13:45:24.294Z,43.46
2022-12-08T13:57:05.189Z,43.02
2022-12-08T13:59:34.099Z,43.12
2022-12-08T14:02:16.269Z,43.51
2022-12-08T14:05:16.778Z,43.17
2022-12-08T14:07:35.570Z,43.50
2022-12-08T14:10:03.573Z,43.32
2022-12-08T14:12:31.487Z,43.19
2022-12-08T14:15:05.195Z,43.39
2022-12-08T14:17:33.690Z,42.96
2022-12-08T14:20:12.478Z,43.35
2022-12-08T14:22:41.194Z,43.12
2022-12-08T14:25:14.362Z,43.04
2022-12-08T14:27:41.010Z,43.11
2022-12-08T14:30:16.764Z,43.45
2022-12-08T14:32:53.676Z,43.44
2022-12-08T14:35:22.780Z,43.39
2022-12-08T14:37:53.152Z,43.45
2022-12-08T14:40:22.893Z,43.32
2022-12-08T14:43:08.142Z,43.37
2022-12-08T14:45:40.749Z,43.39
2022-12-08T14:48:31.781Z,43.43
2022-12-08T14:51:01.940Z,43.24
2022-12-08T14:53:56.448Z,43.35
2022-12-08T14:56:28.806Z,43.42
2022-12-08T14:59:10.408Z,43.08
2022-12-08T15:01:37.753Z,43.17
2022-12-08T15:04:18.755Z,43.08
2022-12-08T15:07:19.616Z,43.30
2022-12-08T15:09:51.536Z,43.41
2022-12-08T15:12:27.052Z,43.37
2022-12-08T15:15:17.661Z,43.17
2022-12-08T15:17:50.165Z,43.15
2022-12-08T15:20:30.149Z,43.35
2022-12-08T15:23:01.920Z,43.57
2022-12-08T15:25:28.401Z,43.27
2022-12-08T15:27:56.423Z,43.43
2022-12-08T15:30:23.383Z,43.44
2022-12-08T15:32:52.278Z,43.17
2022-12-08T15:35:18.983Z,43.05
2022-12-08T15:37:46.423Z,43.16
2022-12-08T15:40:18.781Z,43.30
2022-12-08T15:42:45.582Z,43.19
2022-12-08T15:45:13.886Z,43.42
2022-12-08T15:47:42.243Z,43.27
2022-12-08T15:50:20.323Z,43.38
2022-12-08T15:52:47.508Z,43.15
2022-12-08T15:55:15.834Z,43.10
2022-12-08T16:00:53.418Z,43.17
2022-12-08T16:09:26.001Z,43.09
2022-12-08T16:12:11.439Z,43.15
2022-12-08T16:17:26.706Z,43.31
2022-12-08T16:19:54.002Z,43.25
2022-12-08T16:22:52.907Z,43.32
2022-12-08T16:25:19.328Z,43.31
2022-12-08T16:30:36.366Z,43.08
2022-12-08T16:33:02.893Z,43.09
2022-12-08T16:35:30.433Z,43.37
2022-12-08T16:37:57.333Z,43.21
2022-12-08T16:40:24.352Z,43.35
2022-12-08T16:42:50.804Z,43.21
2022-12-08T16:45:23.871Z,42.87
2022-12-08T16:47:55.637Z,42.92
2022-12-08T16:50:23.566Z,43.06
2022-12-08T16:53:06.499Z,42.93
2022-12-08T16:55:34.161Z,43.29
2022-12-08T16:58:02.667Z,43.09
2022-12-08T17:00:31.243Z,43.08
2022-12-08T17:02:58.856Z,42.94
2022-12-08T17:05:26.663Z,43.36
2022-12-08T17:07:54.010Z,42.85
2022-12-08T17:10:27.531Z,43.10
2022-12-08T17:12:55.669Z,42.98
2022-12-08T17:15:24.683Z,42.95
2022-12-08T17:17:52.114Z,43.20
2022-12-08T17:20:21.304Z,43.13
2022-12-08T17:22:48.568Z,43.04
2022-12-08T17:25:16.220Z,42.91
2022-12-08T17:27:42.815Z,42.96
2022-12-08T17:30:11.773Z,43.03
2022-12-08T17:32:38.843Z,42.88
2022-12-08T17:35:06.374Z,42.94
2022-12-08T17:37:33.237Z,43.22
2022-12-08T17:39:59.770Z,43.14
2022-12-08T17:42:27.227Z,42.67
2022-12-08T17:44:54.562Z,42.83
2022-12-08T17:47:21.515Z,42.77
2022-12-08T17:49:48.053Z,43.28
2022-12-08T17:52:14.561Z,43.06
2022-12-08T17:54:41.086Z,43.05
2022-12-08T17:57:07.555Z,42.87
2022-12-08T17:59:34.162Z,42.97
2022-12-08T18:02:00.833Z,42.86
2022-12-08T18:04:28.318Z,42.88
2022-12-08T18:06:55.177Z,43.12
2022-12-08T18:09:21.769Z,42.93
2022-12-08T18:11:48.438Z,43.02
2022-12-08T18:14:16.098Z,42.89
2022-12-08T18:16:45.220Z,42.99
2022-12-08T18:19:13.033Z,42.77
2022-12-08T18:21:40.774Z,42.77
2022-12-08T18:24:09.404Z,42.94
2022-12-08T18:26:36.276Z,42.83
2022-12-08T18:29:03.746Z,42.98
2022-12-08T18:31:30.296Z,43.14
2022-12-08T18:33:56.870Z,43.12
2022-12-08T18:36:25.598Z,43.03
2022-12-08T18:38:53.053Z,42.92
2022-12-08T18:41:28.793Z,42.86
2022-12-08T18:43:57.076Z,42.87
2022-12-08T18:46:24.931Z,42.99
2022-12-08T18:48:53.109Z,42.72
2022-12-08T18:51:23.166Z,42.86
2022-12-08T18:53:50.110Z,42.70
2022-12-08T18:56:28.457Z,42.81
2022-12-08T18:59:02.817Z,42.76
2022-12-08T19:01:34.187Z,43.14
2022-12-08T19:06:49.913Z,43.14
2022-12-08T19:09:17.271Z,42.99
2022-12-08T19:11:44.205Z,42.91
2022-12-08T19:14:11.346Z,42.75
2022-12-08T19:16:38.112Z,42.90
2022-12-08T19:19:05.304Z,43.23
2022-12-08T19:21:32.332Z,43.15
2022-12-08T19:23:59.917Z,43.13
2022-12-08T19:26:27.686Z,43.20
2022-12-08T19:28:54.226Z,42.89
2022-12-08T19:31:20.995Z,43.28
2022-12-08T19:33:47.584Z,43.07
2022-12-08T19:36:17.685Z,43.34
2022-12-08T19:39:02.521Z,43.04
2022-12-08T19:41:47.600Z,43.02
2022-12-08T19:44:28.920Z,43.02
2022-12-08T19:46:55.496Z,42.99
2022-12-08T19:49:22.128Z,43.04
2022-12-08T19:51:48.625Z,43.01
2022-12-08T19:54:15.149Z,42.83
2022-12-08T19:56:41.703Z,43.28
2022-12-08T19:59:08.385Z,43.21
2022-12-08T20:01:35.039Z,42.95
2022-12-08T20:04:01.647Z,43.17
2022-12-08T20:06:28.197Z,43.17
2022-12-08T20:08:54.907Z,43.02
2022-12-08T20:11:21.528Z,43.21
2022-12-08T20:13:48.430Z,43.33
2022-12-08T20:16:16.024Z,42.92
2022-12-08T20:18:44.391Z,42.91
2022-12-08T20:21:12.279Z,42.91
2022-12-08T20:23:38.796Z,43.05
2022-12-08T20:26:07.910Z,42.94
2022-12-08T20:28:36.185Z,43.05
2022-12-08T20:31:03.643Z,43.17
2022-12-08T20:33:30.664Z,43.18
2022-12-08T20:35:59.891Z,43.09
2022-12-08T20:38:27.502Z,43.37
2022-12-08T20:40:54.289Z,42.99
2022-12-08T20:43:21.031Z,43.02
2022-12-08T20:45:47.481Z,43.13
2022-12-08T20:48:14.110Z,43.19
2022-12-08T20:50:40.984Z,42.93
2022-12-08T20:53:08.413Z,42.87
2022-12-08T20:55:37.947Z,42.98
2022-12-08T20:58:04.925Z,43.22
2022-12-08T21:00:31.437Z,43.00
2022-12-08T21:02:58.107Z,42.84
2022-12-08T21:05:24.909Z,43.22
2022-12-08T21:07:51.770Z,42.91
2022-12-08T21:10:18.563Z,42.98
2022-12-08T21:12:45.161Z,42.96
2022-12-08T21:15:12.492Z,43.34
2022-12-08T21:17:39.286Z,43.23
2022-12-08T21:20:07.182Z,43.40
2022-12-08T21:22:34.372Z,43.30
2022-12-08T21:25:00.856Z,43.01
2022-12-08T21:27:27.564Z,43.03
2022-12-08T21:29:54.139Z,42.86
2022-12-08T21:32:23.405Z,43.26
2022-12-08T21:34:53.635Z,43.27
2022-12-08T21:37:20.166Z,42.97
2022-12-08T21:39:46.817Z,42.86
2022-12-08T21:42:34.306Z,42.94
2022-12-08T21:45:01.448Z,43.08
2022-12-08T21:47:28.171Z,42.89
2022-12-08T21:49:55.082Z,42.96
2022-12-08T21:52:21.738Z,43.02
2022-12-08T21:54:48.550Z,43.27
2022-12-08T21:57:15.019Z,43.23
2022-12-08T21:59:41.606Z,43.06
2022-12-08T22:02:13.751Z,43.06
2022-12-08T22:04:42.194Z,43.13
2022-12-08T22:07:09.825Z,42.89
2022-12-08T22:09:36.467Z,42.97
2022-12-08T22:12:03.213Z,43.00
2022-12-08T22:14:30.153Z,43.10
2022-12-08T22:16:56.735Z,43.00
2022-12-08T22:19:24.802Z,43.05
2022-12-08T22:21:51.469Z,43.26
2022-12-08T22:24:18.015Z,43.28
2022-12-08T22:26:44.604Z,43.11
2022-12-08T22:29:11.164Z,43.10
2022-12-08T22:31:37.790Z,43.19
2022-12-08T22:34:04.403Z,42.81
2022-12-08T22:36:30.983Z,42.90
2022-12-08T22:38:57.568Z,42.89
2022-12-08T22:41:24.491Z,42.76
2022-12-08T22:43:51.274Z,42.63
2022-12-08T22:46:23.917Z,43.04
2022-12-08T22:48:51.579Z,43.04
2022-12-08T22:51:18.471Z,42.97
2022-12-08T22:53:45.659Z,43.23
2022-12-08T22:56:13.363Z,42.89
2022-12-08T22:58:41.336Z,43.15
2022-12-08T23:01:08.972Z,42.79
2022-12-08T23:03:36.096Z,42.85
2022-12-08T23:06:12.379Z,43.01
2022-12-08T23:08:39.634Z,42.88
2022-12-08T23:11:06.196Z,42.92
2022-12-08T23:13:32.820Z,42.76
2022-12-08T23:15:59.421Z,42.97
2022-12-08T23:18:25.902Z,43.06
2022-12-08T23:20:52.552Z,43.11
2022-12-08T23:23:19.126Z,42.83
2022-12-08T23:25:45.667Z,43.11
2022-12-08T23:28:12.900Z,43.08
2022-12-08T23:30:40.809Z,42.73
2022-12-08T23:33:07.907Z,43.12
2022-12-08T23:35:34.867Z,43.02
2022-12-08T23:38:01.643Z,42.95
2022-12-08T23:40:28.301Z,43.04
2022-12-08T23:42:54.901Z,43.03
2022-12-08T23:45:21.660Z,42.76
2022-12-08T23:47:48.173Z,42.84
2022-12-08T23:50:14.655Z,43.00
2022-12-08T23:52:41.111Z,43.09
2022-12-08T23:55:08.328Z,42.94
2022-12-08T23:57:36.162Z,42.79
